createdAt,value
2024-01-09T00:02:21.126Z,99328.88
2024-01-09T00:04:48.223Z,99330.59
2024-01-09T00:07:15.001Z,99329.72
2024-01-09T00:09:41.888Z,99339.06
2024-01-09T00:12:09.393Z,99339.94
2024-01-09T00:14:39.700Z,99345.91
2024-01-09T00:17:06.950Z,99341.66
2024-01-09T00:19:35.649Z,99345.88
2024-01-09T00:22:03.914Z,99351.81
2024-01-09T00:24:30.779Z,99350.94
2024-01-09T00:26:57.705Z,99350.13
2024-01-09T00:29:24.685Z,99350.09
2024-01-09T00:31:51.571Z,99345.00
2024-01-09T00:34:18.534Z,99349.31
2024-01-09T00:36:45.912Z,99357.75
2024-01-09T00:39:12.918Z,99349.28
2024-01-09T00:41:39.791Z,99350.13
2024-01-09T00:44:07.231Z,99350.16
2024-01-09T00:46:34.530Z,99355.22
2024-01-09T00:49:01.891Z,99362.88
2024-01-09T00:51:28.833Z,99359.47
2024-01-09T00:53:58.403Z,99366.25
2024-01-09T00:56:25.208Z,99371.38
2024-01-09T00:58:51.955Z,99364.53
2024-01-09T01:01:18.912Z,99358.63
2024-01-09T01:03:46.136Z,99363.75
2024-01-09T01:06:13.187Z,99367.94
2024-01-09T01:08:40.115Z,99367.94
2024-01-09T01:11:07.492Z,99370.47
2024-01-09T01:13:34.416Z,99366.28
2024-01-09T01:16:01.695Z,99357.81
2024-01-09T01:18:28.573Z,99363.75
2024-01-09T01:21:00.767Z,99356.97
2024-01-09T01:23:27.647Z,99363.75
2024-01-09T01:25:54.750Z,99355.28
2024-01-09T01:28:21.721Z,99358.66
2024-01-09T01:30:48.589Z,99360.38
2024-01-09T01:33:15.560Z,99363.75
2024-01-09T01:35:42.813Z,99365.44
2024-01-09T01:38:09.762Z,99367.97
2024-01-09T01:40:36.565Z,99362.91
2024-01-09T01:43:03.434Z,99362.03
2024-01-09T01:45:30.926Z,99358.69
2024-01-09T01:47:58.212Z,99372.22
2024-01-09T01:50:25.219Z,99367.13
2024-01-09T01:52:52.107Z,99362.06
2024-01-09T01:55:20.602Z,99362.91
2024-01-09T01:57:48.203Z,99361.22
2024-01-09T02:00:17.234Z,99367.13
2024-01-09T02:02:44.073Z,99359.53
2024-01-09T02:05:10.965Z,99365.44
2024-01-09T02:07:37.833Z,99362.91
2024-01-09T02:10:05.001Z,99367.13
2024-01-09T02:12:31.846Z,99368.00
2024-01-09T02:14:59.030Z,99355.28
2024-01-09T02:17:28.536Z,99360.34
2024-01-09T02:19:57.087Z,99353.56
2024-01-09T02:22:24.021Z,99348.50
2024-01-09T02:24:50.881Z,99351.88
2024-01-09T02:27:38.251Z,99345.97
2024-01-09T02:30:06.179Z,99355.28
2024-01-09T02:32:34.138Z,99351.88
2024-01-09T02:35:01.070Z,99346.78
2024-01-09T02:37:27.851Z,99345.09
2024-01-09T02:39:58.506Z,99343.41
2024-01-09T02:42:25.317Z,99343.41
2024-01-09T02:44:58.304Z,99332.38
2024-01-09T02:47:25.608Z,99341.72
2024-01-09T02:49:52.477Z,99342.56
2024-01-09T02:52:27.610Z,99339.16
2024-01-09T02:54:54.479Z,99338.31
2024-01-09T02:57:21.621Z,99334.94
2024-01-09T02:59:48.515Z,99347.63
2024-01-09T03:02:15.480Z,99339.16
2024-01-09T03:04:42.581Z,99336.63
2024-01-09T03:07:09.574Z,99335.78
2024-01-09T03:09:37.211Z,99333.22
2024-01-09T03:12:08.370Z,99330.69
2024-01-09T03:14:38.540Z,99334.09
2024-01-09T03:17:06.263Z,99333.22
2024-01-09T03:19:33.340Z,99324.75
2024-01-09T03:22:00.208Z,99327.31
2024-01-09T03:24:27.001Z,99323.06
2024-01-09T03:26:54.494Z,99322.22
2024-01-09T03:29:21.333Z,99322.22
2024-01-09T03:31:48.135Z,99323.09
2024-01-09T03:34:14.992Z,99326.44
2024-01-09T03:36:44.984Z,99325.63
2024-01-09T03:39:14.089Z,99330.66
2024-01-09T03:41:43.760Z,99320.53
2024-01-09T03:44:11.047Z,99323.91
2024-01-09T03:46:38.977Z,99328.16
2024-01-09T03:49:05.853Z,99320.53
2024-01-09T03:51:33.022Z,99318.84
2024-01-09T03:53:59.798Z,99317.97
2024-01-09T03:56:26.704Z,99316.28
2024-01-09T03:58:53.887Z,99312.91
2024-01-09T04:01:20.836Z,99319.69
2024-01-09T04:03:47.629Z,99329.84
2024-01-09T04:06:15.164Z,99323.91
2024-01-09T04:08:42.106Z,99316.28
2024-01-09T04:11:09.060Z,99323.91
2024-01-09T04:13:35.947Z,99320.50
2024-01-09T04:16:02.958Z,99316.28
2024-01-09T04:18:30.184Z,99324.78
2024-01-09T04:21:00.204Z,99323.91
2024-01-09T04:23:27.084Z,99327.31
2024-01-09T04:25:53.900Z,99329.00
2024-01-09T04:28:20.709Z,99332.41
2024-01-09T04:30:48.088Z,99328.16
2024-01-09T04:33:15.108Z,99330.69
2024-01-09T04:35:42.163Z,99338.31
2024-01-09T04:38:09.031Z,99331.53
2024-01-09T04:40:35.953Z,99335.75
2024-01-09T04:43:02.811Z,99331.56
2024-01-09T04:45:29.654Z,99321.38
2024-01-09T04:47:56.650Z,99329.00
2024-01-09T04:50:23.595Z,99320.53
2024-01-09T04:52:50.996Z,99328.97
2024-01-09T04:55:17.771Z,99334.88
2024-01-09T04:57:44.898Z,99330.66
2024-01-09T05:00:12.349Z,99334.06
2024-01-09T05:02:39.486Z,99334.88
2024-01-09T05:05:06.622Z,99334.88
2024-01-09T05:07:33.571Z,99331.50
2024-01-09T05:10:00.382Z,99329.81
2024-01-09T05:12:27.177Z,99337.41
2024-01-09T05:14:54.057Z,99334.03
2024-01-09T05:17:21.304Z,99332.34
2024-01-09T05:19:48.741Z,99334.75
2024-01-09T05:22:16.113Z,99333.13
2024-01-09T05:24:43.204Z,99333.94
2024-01-09T05:27:09.976Z,99338.22
2024-01-09T05:29:39.837Z,99333.16
2024-01-09T05:32:07.714Z,99334.03
2024-01-09T05:34:34.501Z,99338.25
2024-01-09T05:37:01.277Z,99336.59
2024-01-09T05:39:29.779Z,99339.16
2024-01-09T05:41:57.340Z,99340.78
2024-01-09T05:44:24.200Z,99343.38
2024-01-09T05:46:51.536Z,99355.28
2024-01-09T05:49:18.525Z,99350.16
2024-01-09T05:51:45.451Z,99347.66
2024-01-09T05:54:13.770Z,99352.72
2024-01-09T05:56:42.758Z,99359.47
2024-01-09T05:59:09.816Z,99359.50
2024-01-09T06:01:36.731Z,99358.63
2024-01-09T06:04:03.783Z,99361.19
2024-01-09T06:06:31.139Z,99366.28
2024-01-09T06:08:58.472Z,99366.31
2024-01-09T06:11:26.069Z,99361.19
2024-01-09T06:13:55.224Z,99368.84
2024-01-09T06:16:22.088Z,99365.41
2024-01-09T06:18:48.968Z,99372.22
2024-01-09T06:21:17.608Z,99369.66
2024-01-09T06:23:45.195Z,99368.78
2024-01-09T06:26:14.545Z,99373.00
2024-01-09T06:28:43.865Z,99375.59
2024-01-09T06:31:10.681Z,99380.69
2024-01-09T06:33:37.619Z,99377.28
2024-01-09T06:36:05.209Z,99375.59
2024-01-09T06:38:32.060Z,99375.59
2024-01-09T06:40:59.874Z,99387.47
2024-01-09T06:43:26.647Z,99382.38
2024-01-09T06:45:53.504Z,99395.06
2024-01-09T06:48:20.640Z,99397.63
2024-01-09T06:50:48.066Z,99390.00
2024-01-09T06:53:14.911Z,99387.47
2024-01-09T06:55:42.580Z,99391.72
2024-01-09T06:58:10.088Z,99386.63
2024-01-09T07:00:39.752Z,99394.25
2024-01-09T07:03:07.085Z,99389.97
2024-01-09T07:05:37.535Z,99396.78
2024-01-09T07:08:05.389Z,99391.69
2024-01-09T07:10:32.216Z,99391.72
2024-01-09T07:15:46.709Z,99391.72
2024-01-09T07:18:17.005Z,99386.63
2024-01-09T07:23:45.365Z,99393.38
2024-01-09T07:26:12.837Z,99394.22
2024-01-09T07:28:43.460Z,99396.81
2024-01-09T07:31:15.457Z,99388.28
2024-01-09T07:33:53.048Z,99396.75
2024-01-09T07:36:24.365Z,99393.38
2024-01-09T07:39:22.339Z,99395.91
2024-01-09T07:41:50.997Z,99394.22
2024-01-09T07:44:19.430Z,99395.84
2024-01-09T07:46:48.242Z,99389.91
2024-01-09T07:49:23.048Z,99394.97
2024-01-09T07:51:58.321Z,99390.69
2024-01-09T07:54:25.129Z,99401.78
2024-01-09T07:56:52.201Z,99393.25
2024-01-09T07:59:19.082Z,99384.69
2024-01-09T08:01:55.940Z,99393.22
2024-01-09T08:04:25.948Z,99400.84
2024-01-09T08:06:53.668Z,99404.31
2024-01-09T08:09:20.490Z,99397.47
2024-01-09T08:11:48.530Z,99401.75
2024-01-09T08:14:16.009Z,99413.66
2024-01-09T08:16:43.005Z,99409.41
2024-01-09T08:19:10.256Z,99418.72
2024-01-09T08:21:39.884Z,99417.06
2024-01-09T08:24:08.669Z,99417.97
2024-01-09T08:26:36.062Z,99429.81
2024-01-09T08:29:04.106Z,99423.06
2024-01-09T08:31:31.056Z,99423.91
2024-01-09T08:33:58.661Z,99423.91
2024-01-09T08:36:25.739Z,99428.13
2024-01-09T08:38:52.591Z,99419.66
2024-01-09T08:41:19.602Z,99421.28
2024-01-09T08:43:46.373Z,99422.13
2024-01-09T08:46:13.613Z,99418.72
2024-01-09T08:48:40.545Z,99418.59
2024-01-09T08:53:58.609Z,99421.94
2024-01-09T08:56:25.613Z,99416.03
2024-01-09T08:58:55.388Z,99416.75
2024-01-09T09:01:22.616Z,99415.94
2024-01-09T09:03:49.958Z,99414.09
2024-01-09T09:06:18.528Z,99416.72
2024-01-09T09:08:48.627Z,99421.28
2024-01-09T09:11:18.301Z,99422.13
2024-01-09T09:13:45.563Z,99423.84
2024-01-09T09:16:12.624Z,99426.34
2024-01-09T09:18:40.892Z,99422.97
2024-01-09T09:21:08.944Z,99422.00
2024-01-09T09:23:35.950Z,99426.19
2024-01-09T09:26:04.660Z,99418.41
2024-01-09T09:28:41.073Z,99421.75
2024-01-09T09:31:17.508Z,99419.06
2024-01-09T09:33:45.849Z,99407.81
2024-01-09T09:36:15.694Z,99422.66
2024-01-09T09:38:44.152Z,99417.13
2024-01-09T09:41:18.044Z,99418.63
2024-01-09T09:43:51.624Z,99416.91
2024-01-09T09:46:35.055Z,99417.88
2024-01-09T09:49:02.075Z,99423.06
2024-01-09T09:51:29.526Z,99416.16
2024-01-09T09:54:02.160Z,99416.88
2024-01-09T09:56:29.121Z,99413.31
2024-01-09T09:58:56.099Z,99416.69
2024-01-09T10:01:24.050Z,99406.34
2024-01-09T10:03:58.052Z,99410.03
2024-01-09T10:06:25.481Z,99403.84
2024-01-09T10:08:52.585Z,99407.97
2024-01-09T10:11:19.407Z,99409.59
2024-01-09T10:13:46.455Z,99396.53
2024-01-09T10:16:14.033Z,99391.19
2024-01-09T10:18:41.389Z,99391.78
2024-01-09T10:21:11.878Z,99389.06
2024-01-09T10:23:40.767Z,99387.66
2024-01-09T10:26:13.879Z,99380.50
2024-01-09T10:28:42.608Z,99382.78
2024-01-09T10:31:09.949Z,99386.13
2024-01-09T10:33:43.270Z,99377.25
2024-01-09T10:36:10.511Z,99375.72
2024-01-09T10:38:37.799Z,99368.72
2024-01-09T10:41:21.552Z,99370.81
2024-01-09T10:43:48.939Z,99377.56
2024-01-09T10:46:15.766Z,99355.75
2024-01-09T10:48:43.326Z,99356.97
2024-01-09T10:51:12.149Z,99356.13
2024-01-09T10:53:41.882Z,99352.84
2024-01-09T10:56:10.012Z,99351.28
2024-01-09T10:58:37.166Z,99347.63
2024-01-09T11:01:04.319Z,99357.22
2024-01-09T11:03:31.258Z,99349.22
2024-01-09T11:06:00.747Z,99345.25
2024-01-09T11:08:27.898Z,99347.63
2024-01-09T11:10:56.244Z,99347.63
2024-01-09T11:13:24.210Z,99343.19
2024-01-09T11:15:56.295Z,99339.84
2024-01-09T11:18:28.591Z,99335.50
2024-01-09T11:21:01.858Z,99324.19
2024-01-09T11:23:44.386Z,99325.09
2024-01-09T11:26:15.224Z,99324.22
2024-01-09T11:28:43.956Z,99316.25
2024-01-09T11:31:15.021Z,99316.16
2024-01-09T11:33:44.008Z,99316.53
2024-01-09T11:36:15.904Z,99314.28
2024-01-09T11:38:43.345Z,99314.38
2024-01-09T11:41:11.130Z,99308.44
2024-01-09T11:44:04.002Z,99310.28
2024-01-09T11:46:42.837Z,99307.75
2024-01-09T11:49:12.810Z,99297.53
2024-01-09T11:51:39.739Z,99298.09
2024-01-09T11:54:10.589Z,99293.50
2024-01-09T11:56:38.388Z,99294.91
2024-01-09T11:59:09.144Z,99291.94
2024-01-09T12:01:36.262Z,99291.72
2024-01-09T12:04:03.864Z,99283.69
2024-01-09T12:06:31.128Z,99271.53
2024-01-09T12:08:58.465Z,99269.75
2024-01-09T12:11:25.513Z,99275.44
2024-01-09T12:14:04.413Z,99265.75
2024-01-09T12:16:32.537Z,99269.66
2024-01-09T12:19:00.082Z,99267.31
2024-01-09T12:21:35.135Z,99255.25
2024-01-09T12:24:20.289Z,99256.41
2024-01-09T12:26:50.925Z,99259.22
2024-01-09T12:29:18.030Z,99253.75
2024-01-09T12:31:45.337Z,99248.50
2024-01-09T12:34:12.561Z,99249.34
2024-01-09T12:36:41.179Z,99246.09
2024-01-09T12:39:14.228Z,99250.13
2024-01-09T12:41:41.575Z,99244.81
2024-01-09T12:44:14.499Z,99244.56
2024-01-09T12:46:48.770Z,99246.34
2024-01-09T12:49:16.059Z,99241.41
2024-01-09T12:51:43.236Z,99236.97
2024-01-09T12:54:17.477Z,99244.44
2024-01-09T12:56:45.486Z,99230.09
2024-01-09T12:59:13.415Z,99229.53
2024-01-09T13:01:40.752Z,99233.63
2024-01-09T13:04:07.587Z,99229.03
2024-01-09T13:06:34.720Z,99224.59
2024-01-09T13:09:02.053Z,99225.25
2024-01-09T13:11:29.022Z,99238.75
2024-01-09T13:13:56.336Z,99231.47
2024-01-09T13:16:23.516Z,99233.34
2024-01-09T13:18:50.476Z,99227.00
2024-01-09T13:21:18.668Z,99224.34
2024-01-09T13:23:50.223Z,99216.09
2024-01-09T13:26:20.183Z,99226.03
2024-01-09T13:31:18.885Z,99215.81
2024-01-09T13:33:45.710Z,99225.88
2024-01-09T13:36:17.816Z,99228.44
2024-01-09T13:38:47.156Z,99221.56
2024-01-09T13:41:17.524Z,99217.56
2024-01-09T13:43:44.511Z,99227.28
2024-01-09T13:46:16.197Z,99225.25
2024-01-09T13:48:48.205Z,99232.31
2024-01-09T13:53:45.252Z,99224.41
2024-01-09T13:56:13.572Z,99221.66
2024-01-09T13:58:40.837Z,99230.91
2024-01-09T14:01:07.834Z,99221.47
2024-01-09T14:03:35.046Z,99228.91
2024-01-09T14:06:02.163Z,99234.25
2024-01-09T14:08:29.232Z,99238.47
2024-01-09T14:10:56.386Z,99237.34
2024-01-09T14:13:23.188Z,99229.88
2024-01-09T14:15:53.279Z,99238.66
2024-01-09T14:18:23.206Z,99229.59
2024-01-09T14:20:50.042Z,99231.03
2024-01-09T14:23:16.905Z,99225.91
2024-01-09T14:25:46.679Z,99223.06
2024-01-09T14:28:13.815Z,99220.66
2024-01-09T14:30:40.729Z,99226.66
2024-01-09T14:33:07.698Z,99222.50
2024-01-09T14:35:35.080Z,99234.09
2024-01-09T14:38:02.162Z,99228.66
2024-01-09T14:40:30.299Z,99221.91
2024-01-09T14:42:57.667Z,99223.88
2024-01-09T14:45:24.463Z,99223.88
2024-01-09T14:47:51.332Z,99231.47
2024-01-09T14:50:18.244Z,99224.75
2024-01-09T14:52:45.554Z,99225.44
2024-01-09T14:55:12.453Z,99226.88
2024-01-09T14:57:40.637Z,99223.47
2024-01-09T15:00:12.592Z,99228.44
2024-01-09T15:02:39.608Z,99229.09
2024-01-09T15:05:07.313Z,99229.88
2024-01-09T15:07:34.334Z,99237.34
2024-01-09T15:10:01.420Z,99239.25
2024-01-09T15:12:31.362Z,99234.88
2024-01-09T15:14:58.588Z,99242.88
2024-01-09T15:17:25.570Z,99234.19
2024-01-09T15:19:52.911Z,99242.72
2024-01-09T15:22:19.825Z,99249.38
2024-01-09T15:24:46.632Z,99244.41
2024-01-09T15:27:13.643Z,99240.84
2024-01-09T15:29:42.497Z,99251.06
2024-01-09T15:32:10.085Z,99238.25
2024-01-09T15:34:37.326Z,99246.81
2024-01-09T15:37:04.426Z,99242.78
2024-01-09T15:39:32.191Z,99242.72
2024-01-09T15:41:59.517Z,99243.56
2024-01-09T15:44:26.359Z,99243.56
2024-01-09T15:46:54.947Z,99250.41
2024-01-09T15:49:21.910Z,99251.34
2024-01-09T15:51:48.916Z,99248.94
2024-01-09T15:54:15.841Z,99248.84
2024-01-09T15:56:43.503Z,99253.97
2024-01-09T15:59:10.727Z,99259.84
2024-01-09T16:01:37.709Z,99253.00
2024-01-09T16:04:04.722Z,99259.81
2024-01-09T16:06:33.933Z,99261.47
2024-01-09T16:09:00.933Z,99255.50
2024-01-09T16:11:27.784Z,99256.59
2024-01-09T16:13:56.134Z,99256.44
2024-01-09T16:16:23.200Z,99259.16
2024-01-09T16:18:50.346Z,99258.22
2024-01-09T16:21:17.217Z,99254.72
2024-01-09T16:23:45.259Z,99256.44
2024-01-09T16:26:13.037Z,99263.47
2024-01-09T16:28:40.029Z,99265.09
2024-01-09T16:31:07.220Z,99273.78
2024-01-09T16:33:34.722Z,99266.88
2024-01-09T16:36:01.789Z,99270.63
2024-01-09T16:38:28.569Z,99277.34
2024-01-09T16:40:55.500Z,99273.78
2024-01-09T16:43:25.626Z,99273.75
2024-01-09T16:45:52.547Z,99273.78
2024-01-09T16:48:28.795Z,99265.50
2024-01-09T16:51:02.488Z,99272.13
2024-01-09T16:53:29.794Z,99271.22
2024-01-09T16:55:57.219Z,99267.81
2024-01-09T16:58:24.186Z,99267.81
2024-01-09T17:00:51.282Z,99271.31
2024-01-09T17:03:18.185Z,99273.94
2024-01-09T17:05:45.362Z,99274.00
2024-01-09T17:08:12.719Z,99285.22
2024-01-09T17:10:39.631Z,99282.06
2024-01-09T17:13:06.674Z,99280.47
2024-01-09T17:15:33.530Z,99282.97
2024-01-09T17:18:05.213Z,99286.31
2024-01-09T17:20:32.339Z,99284.56
2024-01-09T17:22:59.499Z,99283.72
2024-01-09T17:25:29.902Z,99282.22
2024-01-09T17:28:05.593Z,99277.97
2024-01-09T17:30:32.806Z,99278.78
2024-01-09T17:33:01.023Z,99280.47
2024-01-09T17:35:27.856Z,99278.84
2024-01-09T17:37:54.733Z,99278.88
2024-01-09T17:40:21.640Z,99272.25
2024-01-09T17:42:48.647Z,99271.41
2024-01-09T17:45:17.969Z,99267.03
2024-01-09T17:47:49.129Z,99264.44
2024-01-09T17:50:17.104Z,99250.78
2024-01-09T17:52:44.327Z,99257.63
2024-01-09T17:55:11.101Z,99256.09
2024-01-09T17:57:39.140Z,99251.78
2024-01-09T18:00:08.131Z,99256.94
2024-01-09T18:02:35.959Z,99250.09
2024-01-09T18:05:02.818Z,99259.53
2024-01-09T18:07:30.401Z,99250.16
2024-01-09T18:09:57.224Z,99247.75
2024-01-09T18:12:24.055Z,99245.94
2024-01-09T18:14:50.811Z,99246.94
2024-01-09T18:17:18.127Z,99254.53
2024-01-09T18:19:45.011Z,99251.19
2024-01-09T18:22:11.884Z,99254.53
2024-01-09T18:24:41.895Z,99252.84
2024-01-09T18:27:08.868Z,99248.78
2024-01-09T18:29:35.846Z,99252.88
2024-01-09T18:32:03.401Z,99258.91
2024-01-09T18:34:30.702Z,99259.78
2024-01-09T18:36:57.975Z,99265.88
2024-01-09T18:39:27.863Z,99256.56
2024-01-09T18:41:58.930Z,99265.88
2024-01-09T18:44:26.978Z,99258.25
2024-01-09T18:46:54.118Z,99263.31
2024-01-09T18:49:21.592Z,99268.41
2024-01-09T18:51:49.547Z,99267.56
2024-01-09T18:54:16.943Z,99273.50
2024-01-09T18:56:46.868Z,99278.56
2024-01-09T18:59:16.406Z,99286.22
2024-01-09T19:01:47.605Z,99282.03
2024-01-09T19:04:23.524Z,99284.56
2024-01-09T19:06:50.517Z,99270.97
2024-01-09T19:09:27.468Z,99276.06
2024-01-09T19:11:54.338Z,99277.78
2024-01-09T19:14:27.332Z,99274.41
2024-01-09T19:16:56.180Z,99274.47
2024-01-09T19:19:23.112Z,99285.50
2024-01-09T19:21:54.867Z,99271.06
2024-01-09T19:24:22.671Z,99272.81
2024-01-09T19:26:49.655Z,99283.81
2024-01-09T19:29:20.437Z,99284.66
2024-01-09T19:31:47.651Z,99285.56
2024-01-09T19:34:14.820Z,99279.59
2024-01-09T19:36:45.961Z,99280.47
2024-01-09T19:39:12.896Z,99284.72
2024-01-09T19:41:40.048Z,99280.50
2024-01-09T19:44:10.084Z,99285.63
2024-01-09T19:46:42.352Z,99289.84
2024-01-09T19:49:09.822Z,99289.00
2024-01-09T19:51:36.901Z,99289.03
2024-01-09T19:54:03.892Z,99276.31
2024-01-09T19:56:33.643Z,99274.63
2024-01-09T19:59:01.160Z,99272.97
2024-01-09T20:01:29.768Z,99270.41
2024-01-09T20:03:56.949Z,99277.22
2024-01-09T20:06:27.340Z,99273.00
2024-01-09T20:08:54.893Z,99277.25
2024-01-09T20:11:26.914Z,99267.13
2024-01-09T20:14:00.663Z,99265.44
2024-01-09T20:16:28.458Z,99267.13
2024-01-09T20:18:55.521Z,99275.63
2024-01-09T20:21:32.425Z,99271.38
2024-01-09T20:23:59.686Z,99268.84
2024-01-09T20:26:28.049Z,99271.38
2024-01-09T20:28:55.524Z,99268.84
2024-01-09T20:31:22.637Z,99265.44
2024-01-09T20:33:54.827Z,99257.81
2024-01-09T20:36:23.150Z,99263.75
2024-01-09T20:38:50.038Z,99257.84
2024-01-09T20:41:17.077Z,99256.13
2024-01-09T20:43:43.994Z,99258.66
2024-01-09T20:46:10.810Z,99254.44
2024-01-09T20:48:38.107Z,99256.13
2024-01-09T20:51:05.642Z,99252.75
2024-01-09T20:53:33.180Z,99257.84
2024-01-09T20:56:02.667Z,99248.53
2024-01-09T20:58:29.721Z,99258.69
2024-01-09T21:00:56.786Z,99258.66
2024-01-09T21:03:26.767Z,99254.44
2024-01-09T21:05:53.828Z,99255.28
2024-01-09T21:08:20.828Z,99250.22
2024-01-09T21:10:47.738Z,99249.34
2024-01-09T21:13:17.623Z,99245.97
2024-01-09T21:15:44.944Z,99253.59
2024-01-09T21:18:12.947Z,99260.38
2024-01-09T21:20:40.443Z,99259.50
2024-01-09T21:23:07.523Z,99245.94
2024-01-09T21:25:35.132Z,99251.88
2024-01-09T21:28:02.148Z,99245.09
2024-01-09T21:30:29.322Z,99243.41
2024-01-09T21:32:56.285Z,99237.47
2024-01-09T21:35:23.221Z,99240.03
2024-01-09T21:38:08.788Z,99243.41
2024-01-09T21:40:44.365Z,99245.94
2024-01-09T21:43:19.583Z,99243.38
2024-01-09T21:45:46.352Z,99247.63
2024-01-09T21:48:13.692Z,99253.56
2024-01-09T21:50:40.611Z,99253.53
2024-01-09T21:53:10.247Z,99259.47
2024-01-09T21:55:37.099Z,99254.41
2024-01-09T21:58:05.072Z,99247.63
2024-01-09T22:00:31.878Z,99256.03
2024-01-09T22:02:58.692Z,99257.72
2024-01-09T22:05:25.544Z,99259.41
2024-01-09T22:07:52.389Z,99255.22
2024-01-09T22:10:19.225Z,99249.28
2024-01-09T22:12:46.284Z,99245.03
2024-01-09T22:15:13.270Z,99243.34
2024-01-09T22:17:41.185Z,99239.13
2024-01-09T22:20:09.453Z,99239.97
2024-01-09T22:22:36.304Z,99234.06
2024-01-09T22:25:03.494Z,99227.25
2024-01-09T22:27:30.465Z,99228.13
2024-01-09T22:29:57.471Z,99225.59
2024-01-09T22:32:24.404Z,99228.06
2024-01-09T22:34:51.402Z,99225.59
2024-01-09T22:37:18.118Z,99219.66
2024-01-09T22:39:46.560Z,99212.91
2024-01-09T22:42:13.353Z,99222.19
2024-01-09T22:44:40.450Z,99227.28
2024-01-09T22:47:07.397Z,99225.59
2024-01-09T22:49:34.229Z,99232.38
2024-01-09T22:52:01.074Z,99238.25
2024-01-09T22:54:27.863Z,99239.94
2024-01-09T22:56:54.671Z,99232.34
2024-01-09T22:59:21.778Z,99224.72
2024-01-09T23:01:54.705Z,99227.28
2024-01-09T23:04:21.827Z,99233.19
2024-01-09T23:06:48.730Z,99223.88
2024-01-09T23:09:15.854Z,99223.91
2024-01-09T23:11:42.622Z,99223.06
2024-01-09T23:14:09.639Z,99219.66
2024-01-09T23:16:36.546Z,99219.69
2024-01-09T23:19:03.536Z,99217.97
2024-01-09T23:21:30.499Z,99216.31
2024-01-09T23:23:57.463Z,99222.22
2024-01-09T23:26:24.302Z,99214.63
2024-01-09T23:28:51.178Z,99219.69
2024-01-09T23:31:18.453Z,99216.31
2024-01-09T23:33:45.595Z,99218.00
2024-01-09T23:36:15.442Z,99218.03
2024-01-09T23:38:42.233Z,99218.03
2024-01-09T23:41:09.388Z,99212.09
2024-01-09T23:43:36.506Z,99212.97
2024-01-09T23:46:03.385Z,99207.88
2024-01-09T23:48:30.339Z,99210.41
2024-01-09T23:51:00.996Z,99210.41
2024-01-09T23:53:28.014Z,99202.78
2024-01-09T23:55:54.846Z,99201.94
2024-01-09T23:58:21.972Z,99211.25
